Station Historical Data
Daily Summary for February 12, 2019 Units:  Both    English   Metric
« Previous Day
Next Day »
Daily Weekly Monthly Yearly Custom
  High: Low: Average:
Temperature: TemperatureC °F /  -17.8 °C 3.9 °F /  -15.6 °C 9.1 °F /  -12.7 °C
Dew Point: DewpointC °F /  -17.8 °C -7.8 °F /  -22.1 °C -3.8 °F /  -19.9 °C
Humidity: Humidity % 28 % 41 %
Wind Speed: WindSpeedKMH mph /  0 km/h - 14.5 mph /  23.3 km/h
Wind Gust: WindSpeedGustKMH mph /  0 km/h - -
Wind:- - WSW
Pressure: PressurehPa in /  0 hPa 1020.3 in /  34547.4 hPa -
Precipitation: 0.0 in /  0 mm    
Historical Graphs
 
 
Tabular Data for February 12, 2019
Time Temperature Dew Point Pressure Wind Wind Speed Wind Gust Humidity Rainfall Rate (Hourly) solar Conditions
TemperatureC °F /  -17.8 °C DewpointC °F /  -17.8 °C PressurehPa in /  0 hPa Calm     Humidity % HourlyPrecipMM in /  0 mm SolarRadiationWatts/m^2 W/m2 Conditions
00:03 9.4 °F /  -12.6 °C -7.3 °F /  -21.8 °C 1020.3 in /  34547.4 hPa NW 22.5 mph /  36.2 km/h 14.6 mph /  23.5 km/h 30 % 0.0 in /  0 mm 0.00 W/m2 CLR
00:08 9.3 °F /  -12.6 °C -6.9 °F /  -21.6 °C 1020.4 in /  34550.7 hPa WNW 20.9 mph /  33.6 km/h 13.7 mph /  22 km/h 31 % 0.0 in /  0 mm 0.00 W/m2 CLR
00:13 9.2 °F /  -12.7 °C -7.5 °F /  -21.9 °C 1020.6 in /  34557.5 hPa NW 24.1 mph /  38.8 km/h 17.2 mph /  27.7 km/h 30 % 0.0 in /  0 mm 0.00 W/m2 CLR
00:18 9.2 °F /  -12.7 °C -7.1 °F /  -21.7 °C 1020.6 in /  34557.5 hPa WNW 19.3 mph /  31.1 km/h 15.9 mph /  25.6 km/h 31 % 0.0 in /  0 mm 0.00 W/m2 CLR
00:23 9.2 °F /  -12.7 °C -7.1 °F /  -21.7 °C 1020.4 in /  34550.7 hPa WNW 25.7 mph /  41.4 km/h 19.0 mph /  30.6 km/h 31 % 0.0 in /  0 mm 0.00 W/m2 CLR
00:28 9.2 °F /  -12.7 °C -7.1 °F /  -21.7 °C 1020.7 in /  34560.9 hPa NW 19.3 mph /  31.1 km/h 12.7 mph /  20.4 km/h 31 % 0.0 in /  0 mm 0.00 W/m2 CLR
00:33 9.1 °F /  -12.7 °C -7.2 °F /  -21.8 °C 1020.8 in /  34564.3 hPa NW 25.9 mph /  41.7 km/h 18.8 mph /  30.3 km/h 31 % 0.0 in /  0 mm 0.00 W/m2 CLR
00:38 9.1 °F /  -12.7 °C -7.2 °F /  -21.8 °C 1020.9 in /  34567.7 hPa WNW 22.5 mph /  36.2 km/h 16.7 mph /  26.9 km/h 31 % 0.0 in /  0 mm 0.00 W/m2 CLR
00:44 9.1 °F /  -12.7 °C -7.2 °F /  -21.8 °C 1020.7 in /  34560.9 hPa NNW 20.9 mph /  33.6 km/h 14.2 mph /  22.9 km/h 31 % 0.0 in /  0 mm 0.00 W/m2 CLR
00:48 9.1 °F /  -12.7 °C -7.2 °F /  -21.8 °C 1021.0 in /  34571.1 hPa NNW 22.2 mph /  35.7 km/h 12.9 mph /  20.8 km/h 31 % 0.0 in /  0 mm 0.00 W/m2 CLR
00:53 9.1 °F /  -12.7 °C -7.2 °F /  -21.8 °C 1021.0 in /  34571.1 hPa WNW 19.3 mph /  31.1 km/h 13.2 mph /  21.2 km/h 31 % 0.0 in /  0 mm 0.00 W/m2 CLR
00:59 9.1 °F /  -12.7 °C -7.2 °F /  -21.8 °C 1021.0 in /  34571.1 hPa WNW 25.9 mph /  41.7 km/h 13.5 mph /  21.7 km/h 31 % 0.0 in /  0 mm 0.00 W/m2 CLR
01:03 9.0 °F /  -12.8 °C -7.3 °F /  -21.8 °C 1021.0 in /  34571.1 hPa NW 22.5 mph /  36.2 km/h 16.6 mph /  26.7 km/h 31 % 0.0 in /  0 mm 0.00 W/m2 CLR
01:08 9.1 °F /  -12.7 °C -7.2 °F /  -21.8 °C 1020.9 in /  34567.7 hPa NNW 17.7 mph /  28.5 km/h 10.3 mph /  16.6 km/h 31 % 0.0 in /  0 mm 0.00 W/m2 CLR
01:14 9.1 °F /  -12.7 °C -7.2 °F /  -21.8 °C 1021.1 in /  34574.4 hPa NW 18.5 mph /  29.8 km/h 12.1 mph /  19.5 km/h 31 % 0.0 in /  0 mm 0.00 W/m2 CLR
01:18 9.1 °F /  -12.7 °C -7.2 °F /  -21.8 °C 1021.0 in /  34571.1 hPa NW 20.9 mph /  33.6 km/h 13.2 mph /  21.2 km/h 31 % 0.0 in /  0 mm 0.00 W/m2 CLR
01:23 9.2 °F /  -12.7 °C -7.5 °F /  -21.9 °C 1021.0 in /  34571.1 hPa NW 24.1 mph /  38.8 km/h 17.4 mph /  28 km/h 30 % 0.0 in /  0 mm 0.00 W/m2 CLR
01:29 9.3 °F /  -12.6 °C -7.4 °F /  -21.9 °C 1021.1 in /  34574.4 hPa NW 18.5 mph /  29.8 km/h 13.2 mph /  21.2 km/h 30 % 0.0 in /  0 mm 0.00 W/m2 CLR
01:34 9.3 °F /  -12.6 °C -7.4 °F /  -21.9 °C 1021.3 in /  34581.2 hPa NW 18.5 mph /  29.8 km/h 12.4 mph /  20 km/h 30 % 0.0 in /  0 mm 0.00 W/m2 CLR
01:38 9.4 °F /  -12.6 °C -7.8 °F /  -22.1 °C 1021.4 in /  34584.6 hPa NW 18.5 mph /  29.8 km/h 11.4 mph /  18.3 km/h 29 % 0.0 in /  0 mm 0.00 W/m2 CLR
01:44 9.4 °F /  -12.6 °C -7.7 °F /  -22.1 °C 1021.3 in /  34581.2 hPa NNW 20.9 mph /  33.6 km/h 14.3 mph /  23 km/h 29 % 0.0 in /  0 mm 0.00 W/m2 CLR
01:49 9.5 °F /  -12.5 °C -7.7 °F /  -22.1 °C 1021.3 in /  34581.2 hPa NNW 20.9 mph /  33.6 km/h 16.4 mph /  26.4 km/h 29 % 0.0 in /  0 mm 0.00 W/m2 CLR
01:53 9.5 °F /  -12.5 °C -7.7 °F /  -22.1 °C 1021.3 in /  34581.2 hPa NNW 18.5 mph /  29.8 km/h 11.3 mph /  18.2 km/h 29 % 0.0 in /  0 mm 0.00 W/m2 CLR
01:59 9.4 °F /  -12.6 °C -7.7 °F /  -22.1 °C 1021.3 in /  34581.2 hPa NW 13.0 mph /  20.9 km/h 9.2 mph /  14.8 km/h 29 % 0.0 in /  0 mm 0.00 W/m2 CLR
02:04 9.5 °F /  -12.5 °C -7.7 °F /  -22.1 °C 1021.3 in /  34581.2 hPa NNW 27.8 mph /  44.7 km/h 15.9 mph /  25.6 km/h 29 % 0.0 in /  0 mm 0.00 W/m2 CLR
02:09 9.6 °F /  -12.4 °C -7.6 °F /  -22 °C 1021.4 in /  34584.6 hPa WNW 20.9 mph /  33.6 km/h 15.9 mph /  25.6 km/h 29 % 0.0 in /  0 mm 0.00 W/m2 CLR
02:14 9.5 °F /  -12.5 °C -7.7 °F /  -22.1 °C 1021.3 in /  34581.2 hPa NW 14.8 mph /  23.8 km/h 12.9 mph /  20.8 km/h 29 % 0.0 in /  0 mm 0.00 W/m2 CLR
02:19 9.4 °F /  -12.6 °C -7.3 °F /  -21.8 °C 1021.3 in /  34581.2 hPa NW 16.7 mph /  26.9 km/h 11.9 mph /  19.2 km/h 30 % 0.0 in /  0 mm 0.00 W/m2 CLR
02:24 9.3 °F /  -12.6 °C -7.4 °F /  -21.9 °C 1021.3 in /  34581.2 hPa NW 13.0 mph /  20.9 km/h 10.6 mph /  17.1 km/h 30 % 0.0 in /  0 mm 0.00 W/m2 CLR
02:29 9.1 °F /  -12.7 °C -7.2 °F /  -21.8 °C 1021.3 in /  34581.2 hPa WNW 18.5 mph /  29.8 km/h 11.6 mph /  18.7 km/h 31 % 0.0 in /  0 mm 0.00 W/m2 CLR
02:33 9.0 °F /  -12.8 °C -7.3 °F /  -21.8 °C 1021.3 in /  34581.2 hPa WNW 17.7 mph /  28.5 km/h 11.6 mph /  18.7 km/h 31 % 0.0 in /  0 mm 0.00 W/m2 CLR
02:38 8.9 °F /  -12.8 °C -7.3 °F /  -21.8 °C 1021.3 in /  34581.2 hPa WNW 18.5 mph /  29.8 km/h 14.6 mph /  23.5 km/h 31 % 0.0 in /  0 mm 0.00 W/m2 CLR
02:43 8.8 °F /  -12.9 °C -7.0 °F /  -21.7 °C 1021.4 in /  34584.6 hPa NW 18.5 mph /  29.8 km/h 11.6 mph /  18.7 km/h 32 % 0.0 in /  0 mm 0.00 W/m2 CLR
02:48 8.8 °F /  -12.9 °C -7.1 °F /  -21.7 °C 1021.4 in /  34584.6 hPa WNW 17.7 mph /  28.5 km/h 12.6 mph /  20.3 km/h 32 % 0.0 in /  0 mm 0.00 W/m2 CLR
02:53 8.7 °F /  -12.9 °C -6.7 °F /  -21.5 °C 1021.5 in /  34588 hPa WNW 16.7 mph /  26.9 km/h 9.7 mph /  15.6 km/h 33 % 0.0 in /  0 mm 0.00 W/m2 CLR
02:58 8.6 °F /  -13 °C -6.8 °F /  -21.6 °C 1021.5 in /  34588 hPa North 16.7 mph /  26.9 km/h 11.6 mph /  18.7 km/h 33 % 0.0 in /  0 mm 0.00 W/m2 CLR
03:03 8.4 °F /  -13.1 °C -6.9 °F /  -21.6 °C 1021.5 in /  34588 hPa NNW 17.7 mph /  28.5 km/h 10.8 mph /  17.4 km/h 33 % 0.0 in /  0 mm 0.00 W/m2 CLR
03:08 8.4 °F /  -13.1 °C -6.6 °F /  -21.4 °C 1021.5 in /  34588 hPa NW 13.0 mph /  20.9 km/h 9.3 mph /  15 km/h 34 % 0.0 in /  0 mm 0.00 W/m2 CLR
03:13 8.3 °F /  -13.2 °C -6.7 °F /  -21.5 °C 1021.5 in /  34588 hPa NW 14.8 mph /  23.8 km/h 10.8 mph /  17.4 km/h 34 % 0.0 in /  0 mm 0.00 W/m2 CLR
03:18 8.2 °F /  -13.2 °C -6.7 °F /  -21.5 °C 1021.6 in /  34591.4 hPa WNW 14.5 mph /  23.3 km/h 10.5 mph /  16.9 km/h 34 % 0.0 in /  0 mm 0.00 W/m2 CLR
03:24 8.1 °F /  -13.3 °C -6.8 °F /  -21.6 °C 1021.6 in /  34591.4 hPa NW 13.0 mph /  20.9 km/h 8.4 mph /  13.5 km/h 34 % 0.0 in /  0 mm 0.00 W/m2 CLR
03:28 8.1 °F /  -13.3 °C -6.5 °F /  -21.4 °C 1021.6 in /  34591.4 hPa NW 11.1 mph /  17.9 km/h 7.6 mph /  12.2 km/h 35 % 0.0 in /  0 mm 0.00 W/m2 CLR
03:33 7.9 °F /  -13.4 °C -6.6 °F /  -21.4 °C 1021.4 in /  34584.6 hPa NW 9.7 mph /  15.6 km/h 6.1 mph /  9.8 km/h 35 % 0.0 in /  0 mm 0.00 W/m2 CLR
03:39 7.8 °F /  -13.4 °C -6.7 °F /  -21.5 °C 1021.3 in /  34581.2 hPa WNW 8.0 mph /  12.9 km/h 6.6 mph /  10.6 km/h 35 % 0.0 in /  0 mm 0.00 W/m2 CLR
03:43 7.8 °F /  -13.4 °C -6.4 °F /  -21.3 °C 1021.4 in /  34584.6 hPa NW 9.7 mph /  15.6 km/h 6.3 mph /  10.1 km/h 36 % 0.0 in /  0 mm 0.00 W/m2 CLR
03:48 7.7 °F /  -13.5 °C -6.4 °F /  -21.3 °C 1021.7 in /  34594.8 hPa NW 11.3 mph /  18.2 km/h 6.8 mph /  10.9 km/h 36 % 0.0 in /  0 mm 0.00 W/m2 CLR
03:54 7.6 °F /  -13.6 °C -6.6 °F /  -21.4 °C 1021.6 in /  34591.4 hPa NW 9.7 mph /  15.6 km/h 7.7 mph /  12.4 km/h 36 % 0.0 in /  0 mm 0.00 W/m2 CLR
03:58 7.6 °F /  -13.6 °C -6.6 °F /  -21.4 °C 1021.6 in /  34591.4 hPa NW 13.0 mph /  20.9 km/h 9.0 mph /  14.5 km/h 36 % 0.0 in /  0 mm 0.00 W/m2 CLR
04:04 7.6 °F /  -13.6 °C -6.6 °F /  -21.4 °C 1021.6 in /  34591.4 hPa NW 9.3 mph /  15 km/h 6.6 mph /  10.6 km/h 36 % 0.0 in /  0 mm 0.00 W/m2 CLR
04:09 7.5 °F /  -13.6 °C -6.3 °F /  -21.3 °C 1021.8 in /  34598.1 hPa NW 9.7 mph /  15.6 km/h 7.7 mph /  12.4 km/h 37 % 0.0 in /  0 mm 0.00 W/m2 CLR
04:13 7.5 °F /  -13.6 °C -6.3 °F /  -21.3 °C 1021.7 in /  34594.8 hPa NW 9.7 mph /  15.6 km/h 7.4 mph /  11.9 km/h 37 % 0.0 in /  0 mm 0.00 W/m2 CLR
04:19 7.5 °F /  -13.6 °C -6.3 °F /  -21.3 °C 1021.8 in /  34598.1 hPa NW 9.7 mph /  15.6 km/h 7.7 mph /  12.4 km/h 37 % 0.0 in /  0 mm 0.00 W/m2 CLR
04:24 7.5 °F /  -13.6 °C -6.3 °F /  -21.3 °C 1021.8 in /  34598.1 hPa WNW 9.7 mph /  15.6 km/h 7.1 mph /  11.4 km/h 37 % 0.0 in /  0 mm 0.00 W/m2 CLR
04:28 7.4 °F /  -13.7 °C -6.3 °F /  -21.3 °C 1021.9 in /  34601.5 hPa WNW 9.3 mph /  15 km/h 6.9 mph /  11.1 km/h 37 % 0.0 in /  0 mm 0.00 W/m2 CLR
04:34 7.4 °F /  -13.7 °C -6.4 °F /  -21.3 °C 1021.9 in /  34601.5 hPa WNW 14.8 mph /  23.8 km/h 8.0 mph /  12.9 km/h 37 % 0.0 in /  0 mm 0.00 W/m2 CLR
04:39 7.3 °F /  -13.7 °C -6.4 °F /  -21.3 °C 1022.0 in /  34604.9 hPa NW 13.0 mph /  20.9 km/h 9.5 mph /  15.3 km/h 37 % 0.0 in /  0 mm 0.00 W/m2 CLR
04:43 7.4 °F /  -13.7 °C -6.4 °F /  -21.3 °C 1022.0 in /  34604.9 hPa NW 14.5 mph /  23.3 km/h 9.3 mph /  15 km/h 37 % 0.0 in /  0 mm 0.00 W/m2 CLR
04:49 7.4 °F /  -13.7 °C -6.3 °F /  -21.3 °C 1022.0 in /  34604.9 hPa WNW 17.7 mph /  28.5 km/h 13.4 mph /  21.6 km/h 37 % 0.0 in /  0 mm 0.00 W/m2 CLR
04:54 7.6 °F /  -13.6 °C -6.6 °F /  -21.4 °C 1021.9 in /  34601.5 hPa NNW 16.7 mph /  26.9 km/h 13.8 mph /  22.2 km/h 36 % 0.0 in /  0 mm 0.00 W/m2 CLR
04:59 7.7 °F /  -13.5 °C -6.5 °F /  -21.4 °C 1022.1 in /  34608.3 hPa NW 17.7 mph /  28.5 km/h 13.2 mph /  21.2 km/h 36 % 0.0 in /  0 mm 0.00 W/m2 CLR
05:04 7.7 °F /  -13.5 °C -6.5 °F /  -21.4 °C 1022.2 in /  34611.7 hPa NNW 16.7 mph /  26.9 km/h 13.4 mph /  21.6 km/h 36 % 0.0 in /  0 mm 0.00 W/m2 CLR
05:08 7.7 °F /  -13.5 °C -6.5 °F /  -21.4 °C 1022.2 in /  34611.7 hPa NW 16.7 mph /  26.9 km/h 12.7 mph /  20.4 km/h 36 % 0.0 in /  0 mm 0.00 W/m2 CLR
05:13 7.8 °F /  -13.4 °C -6.8 °F /  -21.6 °C 1022.1 in /  34608.3 hPa NW 22.2 mph /  35.7 km/h 15.6 mph /  25.1 km/h 35 % 0.0 in /  0 mm 0.00 W/m2 CLR
05:18 7.9 °F /  -13.4 °C -6.6 °F /  -21.4 °C 1022.2 in /  34611.7 hPa NW 19.3 mph /  31.1 km/h 15.3 mph /  24.6 km/h 35 % 0.0 in /  0 mm 0.00 W/m2 CLR
05:23 8.1 °F /  -13.3 °C -6.5 °F /  -21.4 °C 1022.4 in /  34618.5 hPa NW 12.9 mph /  20.8 km/h 9.2 mph /  14.8 km/h 35 % 0.0 in /  0 mm 0.00 W/m2 CLR
05:28 8.1 °F /  -13.3 °C -6.8 °F /  -21.6 °C 1022.3 in /  34615.1 hPa NW 11.3 mph /  18.2 km/h 7.2 mph /  11.6 km/h 34 % 0.0 in /  0 mm 0.00 W/m2 CLR
05:33 8.2 °F /  -13.2 °C -6.7 °F /  -21.5 °C 1022.4 in /  34618.5 hPa NW 9.7 mph /  15.6 km/h 6.0 mph /  9.7 km/h 34 % 0.0 in /  0 mm 0.00 W/m2 CLR
05:38 8.3 °F /  -13.2 °C -7.1 °F /  -21.7 °C 1022.3 in /  34615.1 hPa NW 9.7 mph /  15.6 km/h 5.1 mph /  8.2 km/h 33 % 0.0 in /  0 mm 0.00 W/m2 CLR
05:44 8.4 °F /  -13.1 °C -7.4 °F /  -21.9 °C 1022.1 in /  34608.3 hPa SW 8.0 mph /  12.9 km/h 4.3 mph /  6.9 km/h 32 % 0.0 in /  0 mm 0.00 W/m2 CLR
05:48 8.3 °F /  -13.2 °C -6.7 °F /  -21.5 °C 1022.2 in /  34611.7 hPa WSW 6.4 mph /  10.3 km/h 5.1 mph /  8.2 km/h 34 % 0.0 in /  0 mm 0.00 W/m2 CLR
05:53 8.0 °F /  -13.3 °C -6.6 °F /  -21.4 °C 1022.1 in /  34608.3 hPa NW 12.9 mph /  20.8 km/h 8.0 mph /  12.9 km/h 35 % 0.0 in /  0 mm 0.00 W/m2 CLR
05:59 7.8 °F /  -13.4 °C -7.1 °F /  -21.7 °C 1022.1 in /  34608.3 hPa NNW 13.0 mph /  20.9 km/h 8.2 mph /  13.2 km/h 34 % 0.0 in /  0 mm 0.00 W/m2 CLR
06:03 7.8 °F /  -13.4 °C -6.8 °F /  -21.6 °C 1022.2 in /  34611.7 hPa NW 5.6 mph /  9 km/h 3.5 mph /  5.6 km/h 35 % 0.0 in /  0 mm 0.00 W/m2 CLR
06:08 7.7 °F /  -13.5 °C -6.8 °F /  -21.6 °C 1022.2 in /  34611.7 hPa NNW 5.6 mph /  9 km/h 1.4 mph /  2.3 km/h 35 % 0.0 in /  0 mm 0.00 W/m2 CLR
06:14 7.7 °F /  -13.5 °C -6.8 °F /  -21.6 °C 1022.2 in /  34611.7 hPa NNW 1.9 mph /  3.1 km/h 0.5 mph /  0.8 km/h 35 % 0.0 in /  0 mm 0.00 W/m2 CLR
06:18 7.6 °F /  -13.6 °C -6.9 °F /  -21.6 °C 1022.2 in /  34611.7 hPa NNW 3.7 mph /  6 km/h 2.6 mph /  4.2 km/h 35 % 0.0 in /  0 mm 0.00 W/m2 CLR
06:23 7.4 °F /  -13.7 °C -6.7 °F /  -21.5 °C 1022.5 in /  34621.9 hPa NNW 3.2 mph /  5.1 km/h 1.3 mph /  2.1 km/h 36 % 0.0 in /  0 mm 0.00 W/m2 CLR
06:29 7.2 °F /  -13.8 °C -6.5 °F /  -21.4 °C 1022.7 in /  34628.6 hPa West 5.6 mph /  9 km/h 3.5 mph /  5.6 km/h 37 % 0.0 in /  0 mm 0.00 W/m2 CLR
06:33 7.1 °F /  -13.8 °C -6.7 °F /  -21.5 °C 1022.5 in /  34621.9 hPa SW 5.6 mph /  9 km/h 3.1 mph /  5 km/h 37 % 0.0 in /  0 mm 0.00 W/m2 CLR
06:38 6.9 °F /  -13.9 °C -6.5 °F /  -21.4 °C 1022.5 in /  34621.9 hPa NW 7.4 mph /  11.9 km/h 1.9 mph /  3.1 km/h 38 % 0.0 in /  0 mm 0.00 W/m2 CLR
06:44 6.7 °F /  -14.1 °C -6.3 °F /  -21.3 °C 1022.6 in /  34625.2 hPa NW 1.9 mph /  3.1 km/h 1.0 mph /  1.6 km/h 39 % 0.0 in /  0 mm 0.00 W/m2 CLR
06:48 6.4 °F /  -14.2 °C -5.9 °F /  -21.1 °C 1022.6 in /  34625.2 hPa ESE 5.6 mph /  9 km/h 4.0 mph /  6.4 km/h 41 % 0.0 in /  0 mm 0.00 W/m2 CLR
06:53 5.9 °F /  -14.5 °C -5.8 °F /  -21 °C 1022.7 in /  34628.6 hPa SE 3.7 mph /  6 km/h 1.1 mph /  1.8 km/h 43 % 0.0 in /  0 mm 0.00 W/m2 CLR
06:59 5.7 °F /  -14.6 °C -5.9 °F /  -21.1 °C 1022.7 in /  34628.6 hPa SE 1.9 mph /  3.1 km/h 1.6 mph /  2.6 km/h 43 % 0.0 in /  0 mm 0.00 W/m2 CLR
07:04 5.5 °F /  -14.7 °C -6.4 °F /  -21.3 °C 1022.7 in /  34628.6 hPa SW 5.6 mph /  9 km/h 3.9 mph /  6.3 km/h 42 % 0.0 in /  0 mm 0.00 W/m2 CLR
07:09 5.5 °F /  -14.7 °C -6.4 °F /  -21.3 °C 1022.7 in /  34628.6 hPa SW 5.6 mph /  9 km/h 3.7 mph /  6 km/h 42 % 0.0 in /  0 mm 0.00 W/m2 CLR
07:14 5.6 °F /  -14.7 °C -6.3 °F /  -21.3 °C 1022.7 in /  34628.6 hPa WSW 6.4 mph /  10.3 km/h 4.8 mph /  7.7 km/h 42 % 0.0 in /  0 mm 0.00 W/m2 CLR
07:19 5.7 °F /  -14.6 °C -5.9 °F /  -21.1 °C 1022.7 in /  34628.6 hPa West 6.4 mph /  10.3 km/h 5.5 mph /  8.9 km/h 43 % 0.0 in /  0 mm 0.00 W/m2 CLR
07:24 5.7 °F /  -14.6 °C -6.3 °F /  -21.3 °C 1022.7 in /  34628.6 hPa West 5.6 mph /  9 km/h 4.5 mph /  7.2 km/h 42 % 0.0 in /  0 mm 0.00 W/m2 CLR
07:29 5.8 °F /  -14.6 °C -6.5 °F /  -21.4 °C 1022.7 in /  34628.6 hPa West 5.6 mph /  9 km/h 2.9 mph /  4.7 km/h 41 % 0.0 in /  0 mm 5.00 W/m2 CLR
07:34 5.9 °F /  -14.5 °C -6.7 °F /  -21.5 °C 1022.8 in /  34632 hPa West 8.0 mph /  12.9 km/h 5.3 mph /  8.5 km/h 40 % 0.0 in /  0 mm 7.00 W/m2 CLR
07:39 5.9 °F /  -14.5 °C -5.8 °F /  -21 °C 1023.0 in /  34638.8 hPa SSW 6.4 mph /  10.3 km/h 5.0 mph /  8 km/h 43 % 0.0 in /  0 mm 7.00 W/m2 SCT
07:43 5.5 °F /  -14.7 °C -5.5 °F /  -20.8 °C 1023.2 in /  34645.6 hPa SSW 3.7 mph /  6 km/h 2.1 mph /  3.4 km/h 45 % 0.0 in /  0 mm 9.00 W/m2 SCT
07:48 5.2 °F /  -14.9 °C -5.5 °F /  -20.8 °C 1023.2 in /  34645.6 hPa SSW 3.7 mph /  6 km/h 2.3 mph /  3.7 km/h 46 % 0.0 in /  0 mm 11.00 W/m2 SCT
07:53 5.1 °F /  -14.9 °C -5.9 °F /  -21.1 °C 1023.2 in /  34645.6 hPa WSW 5.6 mph /  9 km/h 3.7 mph /  6 km/h 45 % 0.0 in /  0 mm 14.00 W/m2 SCT
07:58 5.2 °F /  -14.9 °C -6.1 °F /  -21.2 °C 1023.1 in /  34642.2 hPa WSW 5.6 mph /  9 km/h 4.2 mph /  6.8 km/h 44 % 0.0 in /  0 mm 23.00 W/m2 SCT
08:03 5.4 °F /  -14.8 °C -5.8 °F /  -21 °C 1023.2 in /  34645.6 hPa WSW 8.0 mph /  12.9 km/h 6.6 mph /  10.6 km/h 44 % 0.0 in /  0 mm 33.00 W/m2 SCT
08:08 5.7 °F /  -14.6 °C -5.9 °F /  -21.1 °C 1023.2 in /  34645.6 hPa SW 11.3 mph /  18.2 km/h 9.2 mph /  14.8 km/h 43 % 0.0 in /  0 mm 40.00 W/m2 SCT
08:13 5.8 °F /  -14.6 °C -5.5 °F /  -20.8 °C 1023.2 in /  34645.6 hPa SW 11.1 mph /  17.9 km/h 6.1 mph /  9.8 km/h 44 % 0.0 in /  0 mm 49.00 W/m2 SCT
08:18 5.7 °F /  -14.6 °C -5.1 °F /  -20.6 °C 1023.3 in /  34648.9 hPa WSW 11.3 mph /  18.2 km/h 8.8 mph /  14.2 km/h 46 % 0.0 in /  0 mm 54.00 W/m2 SCT
08:23 5.3 °F /  -14.8 °C -4.9 °F /  -20.5 °C 1023.4 in /  34652.3 hPa SW 19.3 mph /  31.1 km/h 11.7 mph /  18.8 km/h 48 % 0.0 in /  0 mm 62.00 W/m2 SCT
08:28 4.7 °F /  -15.2 °C -4.6 °F /  -20.3 °C 1023.3 in /  34648.9 hPa WSW 19.3 mph /  31.1 km/h 11.4 mph /  18.3 km/h 51 % 0.0 in /  0 mm 79.00 W/m2 FEW
08:33 4.3 °F /  -15.4 °C -4.7 °F /  -20.4 °C 1023.4 in /  34652.3 hPa SW 19.3 mph /  31.1 km/h 11.7 mph /  18.8 km/h 52 % 0.0 in /  0 mm 98.00 W/m2 FEW
08:39 3.9 °F /  -15.6 °C -4.6 °F /  -20.3 °C 1023.5 in /  34655.7 hPa WSW 18.5 mph /  29.8 km/h 13.4 mph /  21.6 km/h 54 % 0.0 in /  0 mm 111.00 W/m2 FEW
08:43 3.9 °F /  -15.6 °C -4.6 °F /  -20.3 °C 1023.4 in /  34652.3 hPa WSW 14.5 mph /  23.3 km/h 9.0 mph /  14.5 km/h 54 % 0.0 in /  0 mm 104.00 W/m2 FEW
08:48 4.0 °F /  -15.6 °C -4.2 °F /  -20.1 °C 1023.5 in /  34655.7 hPa WSW 11.3 mph /  18.2 km/h 6.8 mph /  10.9 km/h 55 % 0.0 in /  0 mm 127.00 W/m2 FEW
08:54 4.2 °F /  -15.4 °C -4.3 °F /  -20.2 °C 1023.6 in /  34659.1 hPa West 14.8 mph /  23.8 km/h 10.5 mph /  16.9 km/h 54 % 0.0 in /  0 mm 142.00 W/m2 FEW
08:58 4.4 °F /  -15.3 °C -4.4 °F /  -20.2 °C 1023.6 in /  34659.1 hPa SW 17.7 mph /  28.5 km/h 12.2 mph /  19.6 km/h 53 % 0.0 in /  0 mm 148.00 W/m2 FEW
09:04 4.7 °F /  -15.2 °C -4.4 °F /  -20.2 °C 1023.4 in /  34652.3 hPa SW 19.3 mph /  31.1 km/h 12.4 mph /  20 km/h 52 % 0.0 in /  0 mm 156.00 W/m2 FEW
09:09 4.8 °F /  -15.1 °C -4.4 °F /  -20.2 °C 1023.4 in /  34652.3 hPa West 19.3 mph /  31.1 km/h 14.2 mph /  22.9 km/h 51 % 0.0 in /  0 mm 146.00 W/m2 FEW
09:13 4.9 °F /  -15.1 °C -4.2 °F /  -20.1 °C 1023.5 in /  34655.7 hPa WSW 20.9 mph /  33.6 km/h 13.5 mph /  21.7 km/h 52 % 0.0 in /  0 mm 162.00 W/m2 FEW
09:19 5.0 °F /  -15 °C -4.1 °F /  -20.1 °C 1023.5 in /  34655.7 hPa WSW 11.3 mph /  18.2 km/h 8.7 mph /  14 km/h 52 % 0.0 in /  0 mm 163.00 W/m2 FEW
09:24 5.1 °F /  -14.9 °C -4.0 °F /  -20 °C 1023.6 in /  34659.1 hPa West 18.5 mph /  29.8 km/h 12.7 mph /  20.4 km/h 52 % 0.0 in /  0 mm 197.00 W/m2 FEW
09:28 5.1 °F /  -14.9 °C -3.7 °F /  -19.8 °C 1023.7 in /  34662.5 hPa WSW 19.3 mph /  31.1 km/h 12.9 mph /  20.8 km/h 53 % 0.0 in /  0 mm 211.00 W/m2 FEW
09:34 5.1 °F /  -14.9 °C -3.5 °F /  -19.7 °C 1023.7 in /  34662.5 hPa WSW 20.9 mph /  33.6 km/h 15.3 mph /  24.6 km/h 54 % 0.0 in /  0 mm 225.00 W/m2 FEW
09:39 5.1 °F /  -14.9 °C -3.5 °F /  -19.7 °C 1023.7 in /  34662.5 hPa SSW 20.4 mph /  32.8 km/h 13.5 mph /  21.7 km/h 54 % 0.0 in /  0 mm 246.00 W/m2 FEW
09:43 5.2 °F /  -14.9 °C -3.4 °F /  -19.7 °C 1023.8 in /  34665.9 hPa SW 25.7 mph /  41.4 km/h 20.1 mph /  32.3 km/h 54 % 0.0 in /  0 mm 253.00 W/m2 FEW
09:49 5.3 °F /  -14.8 °C -3.2 °F /  -19.6 °C 1023.8 in /  34665.9 hPa West 19.3 mph /  31.1 km/h 13.0 mph /  20.9 km/h 54 % 0.0 in /  0 mm 260.00 W/m2 CLR
09:54 5.6 °F /  -14.7 °C -3.2 °F /  -19.6 °C 1023.7 in /  34662.5 hPa WSW 19.3 mph /  31.1 km/h 11.9 mph /  19.2 km/h 53 % 0.0 in /  0 mm 318.00 W/m2 CLR
09:58 5.8 °F /  -14.6 °C -3.3 °F /  -19.6 °C 1023.6 in /  34659.1 hPa SW 18.5 mph /  29.8 km/h 7.6 mph /  12.2 km/h 52 % 0.0 in /  0 mm 338.00 W/m2 CLR
10:04 6.1 °F /  -14.4 °C -3.0 °F /  -19.4 °C 1023.5 in /  34655.7 hPa WSW 16.1 mph /  25.9 km/h 10.5 mph /  16.9 km/h 52 % 0.0 in /  0 mm 338.00 W/m2 CLR
10:09 6.4 °F /  -14.2 °C -3.5 °F /  -19.7 °C 1023.6 in /  34659.1 hPa SW 22.2 mph /  35.7 km/h 15.4 mph /  24.8 km/h 49 % 0.0 in /  0 mm 343.00 W/m2 CLR
10:14 6.7 °F /  -14.1 °C -3.8 °F /  -19.9 °C 1023.7 in /  34662.5 hPa SW 19.3 mph /  31.1 km/h 13.5 mph /  21.7 km/h 47 % 0.0 in /  0 mm 281.00 W/m2 CLR
10:18 6.9 °F /  -13.9 °C -3.7 °F /  -19.8 °C 1023.7 in /  34662.5 hPa WSW 18.5 mph /  29.8 km/h 9.5 mph /  15.3 km/h 47 % 0.0 in /  0 mm 257.00 W/m2 CLR
10:23 7.1 °F /  -13.8 °C -3.5 °F /  -19.7 °C 1023.6 in /  34659.1 hPa WSW 22.2 mph /  35.7 km/h 13.8 mph /  22.2 km/h 47 % 0.0 in /  0 mm 239.00 W/m2 FEW
10:28 7.0 °F /  -13.9 °C -3.6 °F /  -19.8 °C 1023.6 in /  34659.1 hPa SW 22.5 mph /  36.2 km/h 16.9 mph /  27.2 km/h 47 % 0.0 in /  0 mm 264.00 W/m2 SCT
10:33 6.8 °F /  -14 °C -3.7 °F /  -19.8 °C 1023.6 in /  34659.1 hPa WSW 19.3 mph /  31.1 km/h 10.8 mph /  17.4 km/h 47 % 0.0 in /  0 mm 301.00 W/m2 FEW
10:38 6.8 °F /  -14 °C -3.7 °F /  -19.8 °C 1023.5 in /  34655.7 hPa SW 18.5 mph /  29.8 km/h 11.7 mph /  18.8 km/h 47 % 0.0 in /  0 mm 359.00 W/m2 FEW
10:43 6.9 °F /  -13.9 °C -3.6 °F /  -19.8 °C 1023.4 in /  34652.3 hPa South 22.2 mph /  35.7 km/h 13.5 mph /  21.7 km/h 47 % 0.0 in /  0 mm 424.00 W/m2 CLR
10:48 7.2 °F /  -13.8 °C -3.3 °F /  -19.6 °C 1023.4 in /  34652.3 hPa SSW 14.8 mph /  23.8 km/h 9.3 mph /  15 km/h 47 % 0.0 in /  0 mm 415.00 W/m2 CLR
10:53 7.5 °F /  -13.6 °C -4.3 °F /  -20.2 °C 1023.3 in /  34648.9 hPa WSW 24.1 mph /  38.8 km/h 13.8 mph /  22.2 km/h 43 % 0.0 in /  0 mm 411.00 W/m2 CLR
10:59 7.7 °F /  -13.5 °C -3.8 °F /  -19.9 °C 1023.4 in /  34652.3 hPa SW 18.5 mph /  29.8 km/h 13.7 mph /  22 km/h 44 % 0.0 in /  0 mm 371.00 W/m2 CLR
11:03 7.8 °F /  -13.4 °C -3.7 °F /  -19.8 °C 1023.4 in /  34652.3 hPa WSW 24.1 mph /  38.8 km/h 15.8 mph /  25.4 km/h 44 % 0.0 in /  0 mm 408.00 W/m2 CLR
11:08 7.9 °F /  -13.4 °C -3.6 °F /  -19.8 °C 1023.4 in /  34652.3 hPa SW 27.8 mph /  44.7 km/h 19.8 mph /  31.9 km/h 44 % 0.0 in /  0 mm 415.00 W/m2 CLR
11:14 8.1 °F /  -13.3 °C -3.4 °F /  -19.7 °C 1023.4 in /  34652.3 hPa West 22.5 mph /  36.2 km/h 14.6 mph /  23.5 km/h 44 % 0.0 in /  0 mm 438.00 W/m2 CLR
11:18 8.4 °F /  -13.1 °C -3.8 °F /  -19.9 °C 1023.4 in /  34652.3 hPa West 17.7 mph /  28.5 km/h 10.8 mph /  17.4 km/h 42 % 0.0 in /  0 mm 424.00 W/m2 CLR
11:23 8.6 °F /  -13 °C -3.9 °F /  -19.9 °C 1023.3 in /  34648.9 hPa SW 25.7 mph /  41.4 km/h 18.2 mph /  29.3 km/h 41 % 0.0 in /  0 mm 397.00 W/m2 CLR
11:29 8.7 °F /  -12.9 °C -3.8 °F /  -19.9 °C 1023.3 in /  34648.9 hPa SW 20.4 mph /  32.8 km/h 16.4 mph /  26.4 km/h 41 % 0.0 in /  0 mm 455.00 W/m2 CLR
11:33 8.9 °F /  -12.8 °C -3.9 °F /  -19.9 °C 1023.1 in /  34642.2 hPa SW 27.8 mph /  44.7 km/h 18.8 mph /  30.3 km/h 40 % 0.0 in /  0 mm 469.00 W/m2 CLR
11:38 9.2 °F /  -12.7 °C -4.1 °F /  -20.1 °C 1023.0 in /  34638.8 hPa SSW 25.9 mph /  41.7 km/h 17.9 mph /  28.8 km/h 39 % 0.0 in /  0 mm 497.00 W/m2 CLR
11:44 9.3 °F /  -12.6 °C -3.9 °F /  -19.9 °C 1023.0 in /  34638.8 hPa WSW 22.5 mph /  36.2 km/h 16.7 mph /  26.9 km/h 39 % 0.0 in /  0 mm 497.00 W/m2 CLR
11:49 9.6 °F /  -12.4 °C -3.4 °F /  -19.7 °C 1023.0 in /  34638.8 hPa West 18.5 mph /  29.8 km/h 11.7 mph /  18.8 km/h 40 % 0.0 in /  0 mm 497.00 W/m2 CLR
11:53 9.7 °F /  -12.4 °C -3.3 °F /  -19.6 °C 1023.0 in /  34638.8 hPa SW 24.1 mph /  38.8 km/h 18.8 mph /  30.3 km/h 40 % 0.0 in /  0 mm 506.00 W/m2 CLR
11:59 9.8 °F /  -12.3 °C -3.5 °F /  -19.7 °C 1022.9 in /  34635.4 hPa WSW 29.6 mph /  47.6 km/h 17.2 mph /  27.7 km/h 39 % 0.0 in /  0 mm 506.00 W/m2 CLR
12:04 9.9 °F /  -12.3 °C -3.4 °F /  -19.7 °C 1022.9 in /  34635.4 hPa WSW 20.4 mph /  32.8 km/h 10.8 mph /  17.4 km/h 39 % 0.0 in /  0 mm 504.00 W/m2 CLR
12:08 10.1 °F /  -12.2 °C -3.2 °F /  -19.6 °C 1022.8 in /  34632 hPa WSW 29.0 mph /  46.7 km/h 22.5 mph /  36.2 km/h 39 % 0.0 in /  0 mm 513.00 W/m2 CLR
12:14 10.3 °F /  -12.1 °C -2.8 °F /  -19.3 °C 1022.7 in /  34628.6 hPa West 19.3 mph /  31.1 km/h 12.1 mph /  19.5 km/h 40 % 0.0 in /  0 mm 510.00 W/m2 CLR
12:19 10.6 °F /  -11.9 °C -2.8 °F /  -19.3 °C 1022.5 in /  34621.9 hPa West 25.9 mph /  41.7 km/h 15.9 mph /  25.6 km/h 39 % 0.0 in /  0 mm 520.00 W/m2 CLR
12:23 10.8 °F /  -11.8 °C -3.0 °F /  -19.4 °C 1022.7 in /  34628.6 hPa West 20.4 mph /  32.8 km/h 14.6 mph /  23.5 km/h 38 % 0.0 in /  0 mm 499.00 W/m2 CLR
12:29 11.1 °F /  -11.6 °C -3.1 °F /  -19.5 °C 1022.6 in /  34625.2 hPa WSW 29.6 mph /  47.6 km/h 16.1 mph /  25.9 km/h 37 % 0.0 in /  0 mm 455.00 W/m2 CLR
12:34 11.3 °F /  -11.5 °C -3.3 °F /  -19.6 °C 1022.5 in /  34621.9 hPa WSW 31.5 mph /  50.7 km/h 18.8 mph /  30.3 km/h 36 % 0.0 in /  0 mm 424.00 W/m2 CLR
12:38 11.3 °F /  -11.5 °C -2.9 °F /  -19.4 °C 1022.4 in /  34618.5 hPa West 20.4 mph /  32.8 km/h 15.4 mph /  24.8 km/h 37 % 0.0 in /  0 mm 420.00 W/m2 CLR
12:44 11.4 °F /  -11.4 °C -2.8 °F /  -19.3 °C 1022.3 in /  34615.1 hPa WNW 16.7 mph /  26.9 km/h 12.6 mph /  20.3 km/h 37 % 0.0 in /  0 mm 413.00 W/m2 CLR
12:48 11.5 °F /  -11.4 °C -2.7 °F /  -19.3 °C 1022.2 in /  34611.7 hPa WSW 22.2 mph /  35.7 km/h 12.2 mph /  19.6 km/h 37 % 0.0 in /  0 mm 408.00 W/m2 FEW
12:54 11.8 °F /  -11.2 °C -2.4 °F /  -19.1 °C 1022.2 in /  34611.7 hPa WSW 22.5 mph /  36.2 km/h 13.5 mph /  21.7 km/h 37 % 0.0 in /  0 mm 396.00 W/m2 FEW
12:58 12.0 °F /  -11.1 °C -3.0 °F /  -19.4 °C 1022.2 in /  34611.7 hPa WSW 24.1 mph /  38.8 km/h 19.6 mph /  31.5 km/h 35 % 0.0 in /  0 mm 369.00 W/m2 FEW
13:03 12.1 °F /  -11.1 °C -2.6 °F /  -19.2 °C 1022.1 in /  34608.3 hPa SW 14.5 mph /  23.3 km/h 6.9 mph /  11.1 km/h 36 % 0.0 in /  0 mm 364.00 W/m2 FEW
13:09 12.3 °F /  -10.9 °C -2.7 °F /  -19.3 °C 1022.0 in /  34604.9 hPa WNW 20.9 mph /  33.6 km/h 12.9 mph /  20.8 km/h 35 % 0.0 in /  0 mm 410.00 W/m2 FEW
13:13 12.5 °F /  -10.8 °C -2.9 °F /  -19.4 °C 1022.1 in /  34608.3 hPa WSW 19.3 mph /  31.1 km/h 14.2 mph /  22.9 km/h 34 % 0.0 in /  0 mm 436.00 W/m2 FEW
13:18 12.7 °F /  -10.7 °C -3.2 °F /  -19.6 °C 1021.9 in /  34601.5 hPa WSW 25.7 mph /  41.4 km/h 17.9 mph /  28.8 km/h 33 % 0.0 in /  0 mm 506.00 W/m2 CLR
13:24 12.9 °F /  -10.6 °C -4.2 °F /  -20.1 °C 1021.8 in /  34598.1 hPa WSW 24.1 mph /  38.8 km/h 13.8 mph /  22.2 km/h 30 % 0.0 in /  0 mm 508.00 W/m2 CLR
13:28 13.2 °F /  -10.4 °C -3.6 °F /  -19.8 °C 1021.7 in /  34594.8 hPa SW 22.5 mph /  36.2 km/h 15.6 mph /  25.1 km/h 31 % 0.0 in /  0 mm 506.00 W/m2 CLR
13:33 13.3 °F /  -10.4 °C -3.4 °F /  -19.7 °C 1021.8 in /  34598.1 hPa NW 25.9 mph /  41.7 km/h 14.6 mph /  23.5 km/h 31 % 0.0 in /  0 mm 503.00 W/m2 CLR
13:39 13.5 °F /  -10.3 °C -3.8 °F /  -19.9 °C 1021.7 in /  34594.8 hPa WNW 22.5 mph /  36.2 km/h 12.4 mph /  20 km/h 30 % 0.0 in /  0 mm 499.00 W/m2 CLR
13:43 13.6 °F /  -10.2 °C -4.6 °F /  -20.3 °C 1021.7 in /  34594.8 hPa SW 25.7 mph /  41.4 km/h 17.4 mph /  28 km/h 28 % 0.0 in /  0 mm 499.00 W/m2 CLR
13:48 13.6 °F /  -10.2 °C -4.6 °F /  -20.3 °C 1021.6 in /  34591.4 hPa West 33.3 mph /  53.6 km/h 15.1 mph /  24.3 km/h 28 % 0.0 in /  0 mm 490.00 W/m2 CLR
13:54 13.6 °F /  -10.2 °C -3.7 °F /  -19.8 °C 1021.7 in /  34594.8 hPa WSW 25.9 mph /  41.7 km/h 15.6 mph /  25.1 km/h 30 % 0.0 in /  0 mm 485.00 W/m2 CLR
13:58 13.6 °F /  -10.2 °C -3.3 °F /  -19.6 °C 1021.6 in /  34591.4 hPa West 25.9 mph /  41.7 km/h 15.3 mph /  24.6 km/h 31 % 0.0 in /  0 mm 478.00 W/m2 CLR
14:03 13.6 °F /  -10.2 °C -3.3 °F /  -19.6 °C 1021.6 in /  34591.4 hPa SW 27.8 mph /  44.7 km/h 15.6 mph /  25.1 km/h 31 % 0.0 in /  0 mm 473.00 W/m2 CLR
14:09 13.6 °F /  -10.2 °C -3.3 °F /  -19.6 °C 1021.5 in /  34588 hPa SW 18.5 mph /  29.8 km/h 12.4 mph /  20 km/h 31 % 0.0 in /  0 mm 457.00 W/m2 CLR
14:13 13.6 °F /  -10.2 °C -2.8 °F /  -19.3 °C 1021.6 in /  34591.4 hPa WSW 22.5 mph /  36.2 km/h 18.2 mph /  29.3 km/h 32 % 0.0 in /  0 mm 455.00 W/m2 CLR
14:18 13.6 °F /  -10.2 °C -2.8 °F /  -19.3 °C 1021.6 in /  34591.4 hPa SW 25.9 mph /  41.7 km/h 15.3 mph /  24.6 km/h 32 % 0.0 in /  0 mm 448.00 W/m2 CLR
14:24 13.6 °F /  -10.2 °C -2.8 °F /  -19.3 °C 1021.6 in /  34591.4 hPa SW 27.8 mph /  44.7 km/h 18.5 mph /  29.8 km/h 32 % 0.0 in /  0 mm 432.00 W/m2 CLR
14:29 13.7 °F /  -10.2 °C -2.8 °F /  -19.3 °C 1021.6 in /  34591.4 hPa WSW 27.8 mph /  44.7 km/h 16.6 mph /  26.7 km/h 32 % 0.0 in /  0 mm 448.00 W/m2 CLR
14:33 13.7 °F /  -10.2 °C -2.8 °F /  -19.3 °C 1021.5 in /  34588 hPa SW 22.2 mph /  35.7 km/h 14.3 mph /  23 km/h 32 % 0.0 in /  0 mm 408.00 W/m2 CLR
14:39 13.7 °F /  -10.2 °C -3.2 °F /  -19.6 °C 1021.4 in /  34584.6 hPa SW 25.9 mph /  41.7 km/h 15.4 mph /  24.8 km/h 31 % 0.0 in /  0 mm 396.00 W/m2 CLR
14:44 13.7 °F /  -10.2 °C -3.1 °F /  -19.5 °C 1021.4 in /  34584.6 hPa SSW 24.1 mph /  38.8 km/h 15.4 mph /  24.8 km/h 31 % 0.0 in /  0 mm 364.00 W/m2 CLR
14:48 13.8 °F /  -10.1 °C -3.1 °F /  -19.5 °C 1021.5 in /  34588 hPa West 22.5 mph /  36.2 km/h 16.4 mph /  26.4 km/h 31 % 0.0 in /  0 mm 253.00 W/m2 CLR
14:54 13.8 °F /  -10.1 °C -3.1 °F /  -19.5 °C 1021.4 in /  34584.6 hPa SW 14.5 mph /  23.3 km/h 9.7 mph /  15.6 km/h 31 % 0.0 in /  0 mm 297.00 W/m2 FEW
14:59 13.9 °F /  -10.1 °C -3.0 °F /  -19.4 °C 1021.4 in /  34584.6 hPa West 16.1 mph /  25.9 km/h 11.7 mph /  18.8 km/h 31 % 0.0 in /  0 mm 320.00 W/m2 FEW
15:04 13.9 °F /  -10.1 °C -2.5 °F /  -19.2 °C 1021.2 in /  34577.8 hPa West 19.3 mph /  31.1 km/h 12.7 mph /  20.4 km/h 32 % 0.0 in /  0 mm 359.00 W/m2 CLR
15:09 13.9 °F /  -10.1 °C -2.6 °F /  -19.2 °C 1021.2 in /  34577.8 hPa WSW 24.1 mph /  38.8 km/h 15.1 mph /  24.3 km/h 32 % 0.0 in /  0 mm 327.00 W/m2 CLR
15:14 13.9 °F /  -10.1 °C -2.5 °F /  -19.2 °C 1021.2 in /  34577.8 hPa WSW 20.9 mph /  33.6 km/h 15.0 mph /  24.1 km/h 32 % 0.0 in /  0 mm 285.00 W/m2 CLR
15:18 14.0 °F /  -10 °C -2.9 °F /  -19.4 °C 1021.1 in /  34574.4 hPa WSW 25.9 mph /  41.7 km/h 16.3 mph /  26.2 km/h 31 % 0.0 in /  0 mm 345.00 W/m2 CLR
15:23 14.1 °F /  -9.9 °C -2.8 °F /  -19.3 °C 1021.1 in /  34574.4 hPa WNW 25.7 mph /  41.4 km/h 13.2 mph /  21.2 km/h 31 % 0.0 in /  0 mm 283.00 W/m2 CLR
15:28 14.2 °F /  -9.9 °C -2.7 °F /  -19.3 °C 1021.0 in /  34571.1 hPa West 22.5 mph /  36.2 km/h 16.7 mph /  26.9 km/h 31 % 0.0 in /  0 mm 288.00 W/m2 CLR
15:33 14.3 °F /  -9.8 °C -2.2 °F /  -19 °C 1021.1 in /  34574.4 hPa WSW 17.7 mph /  28.5 km/h 8.8 mph /  14.2 km/h 32 % 0.0 in /  0 mm 345.00 W/m2 CLR
15:38 14.4 °F /  -9.8 °C -2.1 °F /  -18.9 °C 1021.2 in /  34577.8 hPa West 24.1 mph /  38.8 km/h 17.2 mph /  27.7 km/h 32 % 0.0 in /  0 mm 334.00 W/m2 CLR
15:43 14.3 °F /  -9.8 °C -2.6 °F /  -19.2 °C 1021.1 in /  34574.4 hPa West 27.8 mph /  44.7 km/h 15.3 mph /  24.6 km/h 31 % 0.0 in /  0 mm 313.00 W/m2 CLR
15:48 14.3 °F /  -9.8 °C -2.2 °F /  -19 °C 1021.3 in /  34581.2 hPa WSW 18.5 mph /  29.8 km/h 12.1 mph /  19.5 km/h 32 % 0.0 in /  0 mm 336.00 W/m2 CLR
15:53 14.5 °F /  -9.7 °C -2.0 °F /  -18.9 °C 1021.3 in /  34581.2 hPa West 24.1 mph /  38.8 km/h 13.7 mph /  22 km/h 32 % 0.0 in /  0 mm 341.00 W/m2 CLR
15:58 14.6 °F /  -9.7 °C -1.9 °F /  -18.8 °C 1021.3 in /  34581.2 hPa NW 18.5 mph /  29.8 km/h 12.2 mph /  19.6 km/h 32 % 0.0 in /  0 mm 306.00 W/m2 CLR
16:03 14.6 °F /  -9.7 °C -1.9 °F /  -18.8 °C 1021.3 in /  34581.2 hPa West 16.7 mph /  26.9 km/h 12.1 mph /  19.5 km/h 32 % 0.0 in /  0 mm 292.00 W/m2 CLR
16:08 14.5 °F /  -9.7 °C -2.0 °F /  -18.9 °C 1021.1 in /  34574.4 hPa WNW 22.5 mph /  36.2 km/h 15.3 mph /  24.6 km/h 32 % 0.0 in /  0 mm 295.00 W/m2 CLR
16:13 14.4 °F /  -9.8 °C -2.1 °F /  -18.9 °C 1021.3 in /  34581.2 hPa West 20.4 mph /  32.8 km/h 10.0 mph /  16.1 km/h 32 % 0.0 in /  0 mm 269.00 W/m2 CLR
16:18 14.5 °F /  -9.7 °C -2.0 °F /  -18.9 °C 1021.4 in /  34584.6 hPa WSW 13.0 mph /  20.9 km/h 9.2 mph /  14.8 km/h 32 % 0.0 in /  0 mm 253.00 W/m2 CLR
16:23 14.5 °F /  -9.7 °C -2.0 °F /  -18.9 °C 1021.5 in /  34588 hPa WSW 19.3 mph /  31.1 km/h 13.0 mph /  20.9 km/h 32 % 0.0 in /  0 mm 230.00 W/m2 CLR
16:29 14.4 °F /  -9.8 °C -1.7 °F /  -18.7 °C 1021.5 in /  34588 hPa West 14.8 mph /  23.8 km/h 9.5 mph /  15.3 km/h 33 % 0.0 in /  0 mm 202.00 W/m2 CLR
16:34 14.3 °F /  -9.8 °C -1.3 °F /  -18.5 °C 1021.6 in /  34591.4 hPa West 17.7 mph /  28.5 km/h 10.8 mph /  17.4 km/h 34 % 0.0 in /  0 mm 183.00 W/m2 CLR
16:38 14.3 °F /  -9.8 °C -1.0 °F /  -18.3 °C 1021.6 in /  34591.4 hPa West 19.3 mph /  31.1 km/h 12.2 mph /  19.6 km/h 35 % 0.0 in /  0 mm 165.00 W/m2 CLR
16:44 14.3 °F /  -9.8 °C -1.0 °F /  -18.3 °C 1021.7 in /  34594.8 hPa WSW 18.5 mph /  29.8 km/h 11.6 mph /  18.7 km/h 35 % 0.0 in /  0 mm 137.00 W/m2 CLR
16:49 14.2 °F /  -9.9 °C -0.7 °F /  -18.2 °C 1021.7 in /  34594.8 hPa WSW 20.4 mph /  32.8 km/h 11.4 mph /  18.3 km/h 36 % 0.0 in /  0 mm 132.00 W/m2 CLR
16:53 14.1 °F /  -9.9 °C -0.4 °F /  -18 °C 1021.9 in /  34601.5 hPa WSW 14.8 mph /  23.8 km/h 6.0 mph /  9.7 km/h 37 % 0.0 in /  0 mm 111.00 W/m2 CLR
16:59 14.1 °F /  -9.9 °C -0.4 °F /  -18 °C 1021.9 in /  34601.5 hPa WSW 9.7 mph /  15.6 km/h 7.6 mph /  12.2 km/h 37 % 0.0 in /  0 mm 102.00 W/m2 CLR
17:04 14.1 °F /  -9.9 °C -0.4 °F /  -18 °C 1022.0 in /  34604.9 hPa WSW 13.0 mph /  20.9 km/h 8.4 mph /  13.5 km/h 37 % 0.0 in /  0 mm 76.00 W/m2 CLR
17:08 13.9 °F /  -10.1 °C -0.6 °F /  -18.1 °C 1022.0 in /  34604.9 hPa WSW 9.7 mph /  15.6 km/h 6.6 mph /  10.6 km/h 37 % 0.0 in /  0 mm 62.00 W/m2 CLR
17:14 13.8 °F /  -10.1 °C -0.6 °F /  -18.1 °C 1022.2 in /  34611.7 hPa West 8.0 mph /  12.9 km/h 6.3 mph /  10.1 km/h 37 % 0.0 in /  0 mm 47.00 W/m2 CLR
17:19 13.7 °F /  -10.2 °C -0.4 °F /  -18 °C 1022.2 in /  34611.7 hPa West 6.4 mph /  10.3 km/h 3.9 mph /  6.3 km/h 38 % 0.0 in /  0 mm 25.00 W/m2 CLR
17:23 13.4 °F /  -10.3 °C -0.3 °F /  -17.9 °C 1022.2 in /  34611.7 hPa SW 9.7 mph /  15.6 km/h 7.2 mph /  11.6 km/h 39 % 0.0 in /  0 mm 19.00 W/m2 CLR
17:29 13.2 °F /  -10.4 °C -0.8 °F /  -18.2 °C 1022.3 in /  34615.1 hPa NNW 11.3 mph /  18.2 km/h 7.2 mph /  11.6 km/h 38 % 0.0 in /  0 mm 12.00 W/m2 CLR
17:34 12.9 °F /  -10.6 °C -1.1 °F /  -18.4 °C 1022.3 in /  34615.1 hPa West 6.4 mph /  10.3 km/h 3.9 mph /  6.3 km/h 38 % 0.0 in /  0 mm 11.00 W/m2 CLR
17:38 12.8 °F /  -10.7 °C -0.8 °F /  -18.2 °C 1022.5 in /  34621.9 hPa West 8.0 mph /  12.9 km/h 5.3 mph /  8.5 km/h 39 % 0.0 in /  0 mm 7.00 W/m2 CLR
17:44 12.6 °F /  -10.8 °C -1.3 °F /  -18.5 °C 1022.6 in /  34625.2 hPa NW 5.6 mph /  9 km/h 1.6 mph /  2.6 km/h 38 % 0.0 in /  0 mm 0.00 W/m2 CLR
17:49 12.5 °F /  -10.8 °C -1.1 °F /  -18.4 °C 1022.8 in /  34632 hPa NW 5.6 mph /  9 km/h 3.1 mph /  5 km/h 39 % 0.0 in /  0 mm 0.00 W/m2 CLR
17:54 12.4 °F /  -10.9 °C -1.2 °F /  -18.4 °C 1022.8 in /  34632 hPa WNW 5.6 mph /  9 km/h 3.4 mph /  5.5 km/h 39 % 0.0 in /  0 mm 0.00 W/m2 CLR
17:58 12.2 °F /  -11 °C -1.3 °F /  -18.5 °C 1022.9 in /  34635.4 hPa WNW 3.7 mph /  6 km/h 1.8 mph /  2.9 km/h 39 % 0.0 in /  0 mm 0.00 W/m2 CLR
18:03 12.1 °F /  -11.1 °C -1.5 °F /  -18.6 °C 1023.0 in /  34638.8 hPa West 3.7 mph /  6 km/h 1.1 mph /  1.8 km/h 39 % 0.0 in /  0 mm 0.00 W/m2 CLR
18:08 12.0 °F /  -11.1 °C -1.2 °F /  -18.4 °C 1023.2 in /  34645.6 hPa SE 6.4 mph /  10.3 km/h 4.8 mph /  7.7 km/h 40 % 0.0 in /  0 mm 0.00 W/m2 CLR
18:13 11.8 °F /  -11.2 °C -1.4 °F /  -18.6 °C 1023.3 in /  34648.9 hPa ESE 5.6 mph /  9 km/h 2.9 mph /  4.7 km/h 40 % 0.0 in /  0 mm 0.00 W/m2 CLR
18:18 11.4 °F /  -11.4 °C -1.1 °F /  -18.4 °C 1023.5 in /  34655.7 hPa ESE 3.7 mph /  6 km/h 1.4 mph /  2.3 km/h 42 % 0.0 in /  0 mm 0.00 W/m2 CLR
18:24 11.3 °F /  -11.5 °C -1.2 °F /  -18.4 °C 1023.5 in /  34655.7 hPa ESE 3.7 mph /  6 km/h 2.4 mph /  3.9 km/h 42 % 0.0 in /  0 mm 0.00 W/m2 CLR
18:28 11.2 °F /  -11.6 °C -1.3 °F /  -18.5 °C 1023.4 in /  34652.3 hPa SW 5.6 mph /  9 km/h 3.9 mph /  6.3 km/h 42 % 0.0 in /  0 mm 0.00 W/m2 CLR
18:33 11.1 °F /  -11.6 °C -1.3 °F /  -18.5 °C 1023.6 in /  34659.1 hPa WSW 3.7 mph /  6 km/h 1.3 mph /  2.1 km/h 42 % 0.0 in /  0 mm 0.00 W/m2 CLR
18:39 11.1 °F /  -11.6 °C -1.1 °F /  -18.4 °C 1023.8 in /  34665.9 hPa SSE 6.4 mph /  10.3 km/h 5.6 mph /  9 km/h 43 % 0.0 in /  0 mm 0.00 W/m2 CLR
18:43 10.8 °F /  -11.8 °C -0.9 °F /  -18.3 °C 1023.8 in /  34665.9 hPa SE 6.4 mph /  10.3 km/h 5.0 mph /  8 km/h 44 % 0.0 in /  0 mm 0.00 W/m2 CLR
18:48 10.4 °F /  -12 °C -1.3 °F /  -18.5 °C 1023.8 in /  34665.9 hPa SSE 5.6 mph /  9 km/h 3.5 mph /  5.6 km/h 44 % 0.0 in /  0 mm 0.00 W/m2 CLR
18:54 10.3 °F /  -12.1 °C -1.4 °F /  -18.6 °C 1023.9 in /  34669.3 hPa SSE 3.7 mph /  6 km/h 2.1 mph /  3.4 km/h 44 % 0.0 in /  0 mm 0.00 W/m2 CLR
18:58 10.3 °F /  -12.1 °C -1.2 °F /  -18.4 °C 1024.0 in /  34672.6 hPa SSE 3.7 mph /  6 km/h 2.9 mph /  4.7 km/h 45 % 0.0 in /  0 mm 0.00 W/m2 CLR
19:03 10.3 °F /  -12.1 °C -1.8 °F /  -18.8 °C 1024.1 in /  34676 hPa SSE 6.4 mph /  10.3 km/h 5.1 mph /  8.2 km/h 43 % 0.0 in /  0 mm 0.00 W/m2 CLR
19:09 10.3 °F /  -12.1 °C -1.4 °F /  -18.6 °C 1024.1 in /  34676 hPa SW 5.6 mph /  9 km/h 3.9 mph /  6.3 km/h 44 % 0.0 in /  0 mm 0.00 W/m2 CLR
19:13 10.3 °F /  -12.1 °C -1.4 °F /  -18.6 °C 1024.2 in /  34679.4 hPa SW 1.9 mph /  3.1 km/h 1.4 mph /  2.3 km/h 44 % 0.0 in /  0 mm 0.00 W/m2 CLR
19:19 10.3 °F /  -12.1 °C -1.4 °F /  -18.6 °C 1024.3 in /  34682.8 hPa SW 3.7 mph /  6 km/h 1.4 mph /  2.3 km/h 44 % 0.0 in /  0 mm 0.00 W/m2 CLR
19:24 10.1 °F /  -12.2 °C -0.8 °F /  -18.2 °C 1024.4 in /  34686.2 hPa ENE 5.6 mph /  9 km/h 2.9 mph /  4.7 km/h 47 % 0.0 in /  0 mm 0.00 W/m2 CLR
19:28 9.6 °F /  -12.4 °C -0.9 °F /  -18.3 °C 1024.5 in /  34689.6 hPa ENE 5.6 mph /  9 km/h 2.9 mph /  4.7 km/h 48 % 0.0 in /  0 mm 0.00 W/m2 CLR
19:34 9.2 °F /  -12.7 °C -1.0 °F /  -18.3 °C 1024.6 in /  34693 hPa ENE 5.6 mph /  9 km/h 4.0 mph /  6.4 km/h 49 % 0.0 in /  0 mm 0.00 W/m2 CLR
19:39 9.1 °F /  -12.7 °C -0.8 °F /  -18.2 °C 1024.6 in /  34693 hPa East 8.0 mph /  12.9 km/h 4.2 mph /  6.8 km/h 50 % 0.0 in /  0 mm 0.00 W/m2 CLR
19:43 9.0 °F /  -12.8 °C -0.9 °F /  -18.3 °C 1024.6 in /  34693 hPa ESE 5.6 mph /  9 km/h 4.0 mph /  6.4 km/h 50 % 0.0 in /  0 mm 0.00 W/m2 CLR
19:49 8.9 °F /  -12.8 °C -0.7 °F /  -18.2 °C 1024.7 in /  34696.3 hPa ESE 5.6 mph /  9 km/h 3.4 mph /  5.5 km/h 51 % 0.0 in /  0 mm 0.00 W/m2 CLR
19:54 8.8 °F /  -12.9 °C -0.8 °F /  -18.2 °C 1024.7 in /  34696.3 hPa ESE 5.6 mph /  9 km/h 3.9 mph /  6.3 km/h 51 % 0.0 in /  0 mm 0.00 W/m2 CLR
19:58 8.8 °F /  -12.9 °C -0.8 °F /  -18.2 °C 1024.9 in /  34703.1 hPa SE 6.4 mph /  10.3 km/h 4.5 mph /  7.2 km/h 51 % 0.0 in /  0 mm 0.00 W/m2 CLR
20:04 8.8 °F /  -12.9 °C -0.6 °F /  -18.1 °C 1024.9 in /  34703.1 hPa SE 8.0 mph /  12.9 km/h 6.3 mph /  10.1 km/h 52 % 0.0 in /  0 mm 0.00 W/m2 CLR
20:09 8.7 °F /  -12.9 °C -0.7 °F /  -18.2 °C 1024.9 in /  34703.1 hPa SSE 9.3 mph /  15 km/h 5.0 mph /  8 km/h 52 % 0.0 in /  0 mm 0.00 W/m2 CLR
20:13 8.6 °F /  -13 °C -0.8 °F /  -18.2 °C 1024.9 in /  34703.1 hPa SE 7.4 mph /  11.9 km/h 4.8 mph /  7.7 km/h 52 % 0.0 in /  0 mm 0.00 W/m2 CLR
20:19 8.4 °F /  -13.1 °C -0.8 °F /  -18.2 °C 1025.1 in /  34709.9 hPa SSE 8.0 mph /  12.9 km/h 5.3 mph /  8.5 km/h 52 % 0.0 in /  0 mm 0.00 W/m2 CLR
20:24 8.3 °F /  -13.2 °C -0.7 °F /  -18.2 °C 1025.2 in /  34713.3 hPa SE 11.3 mph /  18.2 km/h 8.0 mph /  12.9 km/h 53 % 0.0 in /  0 mm 0.00 W/m2 CLR
20:28 8.3 °F /  -13.2 °C -0.8 °F /  -18.2 °C 1025.3 in /  34716.7 hPa South 11.1 mph /  17.9 km/h 7.4 mph /  11.9 km/h 53 % 0.0 in /  0 mm 0.00 W/m2 CLR
20:33 8.2 °F /  -13.2 °C -0.8 °F /  -18.2 °C 1025.4 in /  34720 hPa SSE 9.7 mph /  15.6 km/h 6.0 mph /  9.7 km/h 53 % 0.0 in /  0 mm 0.00 W/m2 CLR
20:38 8.2 °F /  -13.2 °C -0.8 °F /  -18.2 °C 1025.5 in /  34723.4 hPa SSE 8.0 mph /  12.9 km/h 4.8 mph /  7.7 km/h 53 % 0.0 in /  0 mm 0.00 W/m2 CLR
20:43 8.2 °F /  -13.2 °C -0.8 °F /  -18.2 °C 1025.7 in /  34730.2 hPa SSE 6.4 mph /  10.3 km/h 4.0 mph /  6.4 km/h 53 % 0.0 in /  0 mm 0.00 W/m2 CLR
20:48 8.1 °F /  -13.3 °C -0.9 °F /  -18.3 °C 1025.8 in /  34733.6 hPa SSE 5.6 mph /  9 km/h 3.9 mph /  6.3 km/h 53 % 0.0 in /  0 mm 0.00 W/m2 CLR
20:53 7.9 °F /  -13.4 °C -1.1 °F /  -18.4 °C 1025.9 in /  34737 hPa SSE 6.4 mph /  10.3 km/h 4.7 mph /  7.6 km/h 53 % 0.0 in /  0 mm 0.00 W/m2 CLR
20:58 7.8 °F /  -13.4 °C -1.2 °F /  -18.4 °C 1026.0 in /  34740.4 hPa SW 7.4 mph /  11.9 km/h 5.3 mph /  8.5 km/h 53 % 0.0 in /  0 mm 0.00 W/m2 CLR
21:03 7.8 °F /  -13.4 °C -0.9 °F /  -18.3 °C 1026.0 in /  34740.4 hPa SW 8.0 mph /  12.9 km/h 7.4 mph /  11.9 km/h 54 % 0.0 in /  0 mm 0.00 W/m2 CLR
21:08 7.8 °F /  -13.4 °C -1.2 °F /  -18.4 °C 1026.1 in /  34743.7 hPa SW 5.6 mph /  9 km/h 4.0 mph /  6.4 km/h 53 % 0.0 in /  0 mm 0.00 W/m2 CLR
21:14 7.8 °F /  -13.4 °C -1.2 °F /  -18.4 °C 1026.2 in /  34747.1 hPa SW 6.4 mph /  10.3 km/h 4.2 mph /  6.8 km/h 53 % 0.0 in /  0 mm 0.00 W/m2 CLR
21:18 7.8 °F /  -13.4 °C -1.4 °F /  -18.6 °C 1026.3 in /  34750.5 hPa SW 6.4 mph /  10.3 km/h 3.9 mph /  6.3 km/h 52 % 0.0 in /  0 mm 0.00 W/m2 CLR
21:23 7.8 °F /  -13.4 °C -1.4 °F /  -18.6 °C 1026.4 in /  34753.9 hPa SSW 5.6 mph /  9 km/h 3.2 mph /  5.1 km/h 52 % 0.0 in /  0 mm 0.00 W/m2 CLR
21:29 7.8 °F /  -13.4 °C -1.4 °F /  -18.6 °C 1026.5 in /  34757.3 hPa SSW 5.6 mph /  9 km/h 2.6 mph /  4.2 km/h 52 % 0.0 in /  0 mm 0.00 W/m2 CLR
21:33 7.9 °F /  -13.4 °C -1.6 °F /  -18.7 °C 1026.5 in /  34757.3 hPa SSW 1.9 mph /  3.1 km/h 0.8 mph /  1.3 km/h 51 % 0.0 in /  0 mm 0.00 W/m2 CLR
21:38 7.9 °F /  -13.4 °C -1.6 °F /  -18.7 °C 1026.6 in /  34760.7 hPa SSW 4.8 mph /  7.7 km/h 3.1 mph /  5 km/h 51 % 0.0 in /  0 mm 0.00 W/m2 CLR
21:44 7.8 °F /  -13.4 °C -1.7 °F /  -18.7 °C 1026.7 in /  34764.1 hPa SSW 5.6 mph /  9 km/h 4.0 mph /  6.4 km/h 51 % 0.0 in /  0 mm 0.00 W/m2 CLR
21:48 7.7 °F /  -13.5 °C -1.6 °F /  -18.7 °C 1026.9 in /  34770.8 hPa East 8.0 mph /  12.9 km/h 6.1 mph /  9.8 km/h 52 % 0.0 in /  0 mm 0.00 W/m2 CLR
21:53 7.2 °F /  -13.8 °C -1.6 °F /  -18.7 °C 1027.2 in /  34781 hPa ENE 11.3 mph /  18.2 km/h 7.7 mph /  12.4 km/h 54 % 0.0 in /  0 mm 0.00 W/m2 CLR
21:59 6.9 °F /  -13.9 °C -1.6 °F /  -18.7 °C 1027.3 in /  34784.4 hPa East 11.3 mph /  18.2 km/h 6.3 mph /  10.1 km/h 55 % 0.0 in /  0 mm 0.00 W/m2 CLR
22:03 6.7 °F /  -14.1 °C -1.4 °F /  -18.6 °C 1027.5 in /  34791.2 hPa ESE 11.1 mph /  17.9 km/h 7.7 mph /  12.4 km/h 56 % 0.0 in /  0 mm 0.00 W/m2 CLR
22:09 6.6 °F /  -14.1 °C -1.6 °F /  -18.7 °C 1027.6 in /  34794.5 hPa East 9.7 mph /  15.6 km/h 5.5 mph /  8.9 km/h 56 % 0.0 in /  0 mm 0.00 W/m2 CLR
22:14 6.5 °F /  -14.2 °C -1.4 °F /  -18.6 °C 1027.6 in /  34794.5 hPa East 9.7 mph /  15.6 km/h 5.5 mph /  8.9 km/h 57 % 0.0 in /  0 mm 0.00 W/m2 CLR
22:18 6.4 °F /  -14.2 °C -1.3 °F /  -18.5 °C 1027.7 in /  34797.9 hPa East 7.4 mph /  11.9 km/h 3.4 mph /  5.5 km/h 58 % 0.0 in /  0 mm 0.00 W/m2 CLR
22:24 6.3 °F /  -14.3 °C -1.3 °F /  -18.5 °C 1027.8 in /  34801.3 hPa ENE 8.0 mph /  12.9 km/h 5.6 mph /  9 km/h 58 % 0.0 in /  0 mm 0.00 W/m2 CLR
22:29 6.3 °F /  -14.3 °C -1.4 °F /  -18.6 °C 1027.8 in /  34801.3 hPa ENE 6.4 mph /  10.3 km/h 3.5 mph /  5.6 km/h 58 % 0.0 in /  0 mm 0.00 W/m2 CLR
22:34 6.3 °F /  -14.3 °C -1.2 °F /  -18.4 °C 1028.0 in /  34808.1 hPa East 8.0 mph /  12.9 km/h 4.7 mph /  7.6 km/h 59 % 0.0 in /  0 mm 0.00 W/m2 CLR
22:39 6.3 °F /  -14.3 °C -0.5 °F /  -18.1 °C 1028.0 in /  34808.1 hPa East 8.0 mph /  12.9 km/h 3.9 mph /  6.3 km/h 62 % 0.0 in /  0 mm 0.00 W/m2 CLR
22:44 6.3 °F /  -14.3 °C -1.2 °F /  -18.4 °C 1028.1 in /  34811.5 hPa East 9.7 mph /  15.6 km/h 5.6 mph /  9 km/h 59 % 0.0 in /  0 mm 0.00 W/m2 CLR
22:49 6.3 °F /  -14.3 °C -1.1 °F /  -18.4 °C 1028.3 in /  34818.2 hPa ESE 5.6 mph /  9 km/h 4.3 mph /  6.9 km/h 59 % 0.0 in /  0 mm 0.00 W/m2 CLR
22:54 6.3 °F /  -14.3 °C -1.1 °F /  -18.4 °C 1028.4 in /  34821.6 hPa ESE 5.6 mph /  9 km/h 3.1 mph /  5 km/h 59 % 0.0 in /  0 mm 0.00 W/m2 CLR
22:59 6.3 °F /  -14.3 °C -1.1 °F /  -18.4 °C 1028.3 in /  34818.2 hPa ESE 8.0 mph /  12.9 km/h 3.7 mph /  6 km/h 59 % 0.0 in /  0 mm 0.00 W/m2 CLR
23:04 6.3 °F /  -14.3 °C -1.2 °F /  -18.4 °C 1028.3 in /  34818.2 hPa SE 8.0 mph /  12.9 km/h 3.4 mph /  5.5 km/h 59 % 0.0 in /  0 mm 0.00 W/m2 CLR
23:08 6.3 °F /  -14.3 °C -1.2 °F /  -18.4 °C 1028.4 in /  34821.6 hPa ESE 8.0 mph /  12.9 km/h 5.5 mph /  8.9 km/h 59 % 0.0 in /  0 mm 0.00 W/m2 CLR
23:13 6.3 °F /  -14.3 °C -1.1 °F /  -18.4 °C 1028.5 in /  34825 hPa ESE 9.3 mph /  15 km/h 4.5 mph /  7.2 km/h 59 % 0.0 in /  0 mm 0.00 W/m2 CLR
23:18 6.6 °F /  -14.1 °C -0.9 °F /  -18.3 °C 1028.8 in /  34835.2 hPa SE 13.0 mph /  20.9 km/h 9.0 mph /  14.5 km/h 59 % 0.0 in /  0 mm 0.00 W/m2 CLR
23:23 6.7 °F /  -14.1 °C -0.8 °F /  -18.2 °C 1028.8 in /  34835.2 hPa East 11.1 mph /  17.9 km/h 5.6 mph /  9 km/h 59 % 0.0 in /  0 mm 0.00 W/m2 CLR
23:28 6.7 °F /  -14.1 °C -0.7 °F /  -18.2 °C 1029.0 in /  34841.9 hPa ENE 11.1 mph /  17.9 km/h 6.1 mph /  9.8 km/h 59 % 0.0 in /  0 mm 0.00 W/m2 CLR
23:33 6.7 °F /  -14.1 °C -0.8 °F /  -18.2 °C 1029.1 in /  34845.3 hPa ENE 13.0 mph /  20.9 km/h 6.0 mph /  9.7 km/h 59 % 0.0 in /  0 mm 0.00 W/m2 CLR
23:38 6.6 °F /  -14.1 °C -0.8 °F /  -18.2 °C 1029.2 in /  34848.7 hPa ENE 13.0 mph /  20.9 km/h 8.5 mph /  13.7 km/h 59 % 0.0 in /  0 mm 0.00 W/m2 CLR
23:43 6.5 °F /  -14.2 °C -0.7 °F /  -18.2 °C 1029.2 in /  34848.7 hPa ENE 13.0 mph /  20.9 km/h 6.6 mph /  10.6 km/h 60 % 0.0 in /  0 mm 0.00 W/m2 CLR
23:48 6.4 °F /  -14.2 °C -0.8 °F /  -18.2 °C 1029.3 in /  34852.1 hPa ENE 12.9 mph /  20.8 km/h 7.4 mph /  11.9 km/h 60 % 0.0 in /  0 mm 0.00 W/m2 CLR
23:54 6.3 °F /  -14.3 °C -0.9 °F /  -18.3 °C 1029.4 in /  34855.5 hPa ENE 8.0 mph /  12.9 km/h 5.5 mph /  8.9 km/h 60 % 0.0 in /  0 mm 0.00 W/m2 CLR
23:58 6.2 °F /  -14.3 °C -0.8 °F /  -18.2 °C 1029.4 in /  34855.5 hPa ENE 16.1 mph /  25.9 km/h 8.5 mph /  13.7 km/h 61 % 0.0 in /  0 mm 0.00 W/m2 CLR
Juneau County Weather
Compliments of Weather Underground - 3.5 mb